sensor_id;sensor_type;location;lat;lon;timestamp;P1;durP1;ratioP1;P2;durP2;ratioP2
61038;SDS011;46919;45.816;3.104;2023-05-14T00:02:09;6.78;;;5.20;;
61038;SDS011;46919;45.816;3.104;2023-05-14T00:04:34;6.13;;;4.70;;
61038;SDS011;46919;45.816;3.104;2023-05-14T00:07:00;4.97;;;4.47;;
61038;SDS011;46919;45.816;3.104;2023-05-14T00:09:25;6.68;;;4.47;;
61038;SDS011;46919;45.816;3.104;2023-05-14T00:11:51;5.97;;;5.28;;
61038;SDS011;46919;45.816;3.104;2023-05-14T00:14:16;5.07;;;4.53;;
61038;SDS011;46919;45.816;3.104;2023-05-14T00:16:41;5.28;;;4.65;;
61038;SDS011;46919;45.816;3.104;2023-05-14T00:19:07;5.20;;;4.70;;
61038;SDS011;46919;45.816;3.104;2023-05-14T00:21:32;8.85;;;4.15;;
61038;SDS011;46919;45.816;3.104;2023-05-14T00:23:58;6.05;;;3.97;;
61038;SDS011;46919;45.816;3.104;2023-05-14T00:26:24;3.58;;;3.28;;
61038;SDS011;46919;45.816;3.104;2023-05-14T00:28:49;5.22;;;4.20;;
61038;SDS011;46919;45.816;3.104;2023-05-14T00:31:14;3.78;;;3.47;;
61038;SDS011;46919;45.816;3.104;2023-05-14T00:33:40;5.93;;;3.88;;
61038;SDS011;46919;45.816;3.104;2023-05-14T00:36:05;5.57;;;4.22;;
61038;SDS011;46919;45.816;3.104;2023-05-14T00:38:32;5.95;;;4.32;;
61038;SDS011;46919;45.816;3.104;2023-05-14T00:40:57;6.30;;;4.20;;
61038;SDS011;46919;45.816;3.104;2023-05-14T00:43:22;5.32;;;4.20;;
61038;SDS011;46919;45.816;3.104;2023-05-14T00:45:49;5.22;;;4.10;;
61038;SDS011;46919;45.816;3.104;2023-05-14T00:48:16;9.48;;;4.75;;
61038;SDS011;46919;45.816;3.104;2023-05-14T00:50:42;6.95;;;4.53;;
61038;SDS011;46919;45.816;3.104;2023-05-14T00:53:08;5.05;;;4.55;;
61038;SDS011;46919;45.816;3.104;2023-05-14T00:55:38;5.15;;;4.63;;
61038;SDS011;46919;45.816;3.104;2023-05-14T00:58:06;4.82;;;4.43;;
61038;SDS011;46919;45.816;3.104;2023-05-14T01:00:35;5.13;;;4.55;;
61038;SDS011;46919;45.816;3.104;2023-05-14T01:03:02;5.72;;;5.18;;
61038;SDS011;46919;45.816;3.104;2023-05-14T01:05:29;7.38;;;5.82;;
61038;SDS011;46919;45.816;3.104;2023-05-14T01:11:11;6.30;;;5.70;;
61038;SDS011;46919;45.816;3.104;2023-05-14T01:13:46;12.15;;;6.10;;
61038;SDS011;46919;45.816;3.104;2023-05-14T01:16:36;6.72;;;6.03;;
61038;SDS011;46919;45.816;3.104;2023-05-14T01:19:04;7.40;;;5.80;;
61038;SDS011;46919;45.816;3.104;2023-05-14T01:21:37;7.70;;;5.30;;
61038;SDS011;46919;45.816;3.104;2023-05-14T01:24:06;7.75;;;5.82;;
61038;SDS011;46919;45.816;3.104;2023-05-14T01:26:32;6.07;;;5.40;;
61038;SDS011;46919;45.816;3.104;2023-05-14T01:29:20;8.55;;;4.78;;
61038;SDS011;46919;45.816;3.104;2023-05-14T01:31:46;8.50;;;4.72;;
61038;SDS011;46919;45.816;3.104;2023-05-14T01:34:14;7.22;;;4.88;;
61038;SDS011;46919;45.816;3.104;2023-05-14T01:36:43;5.80;;;4.68;;
61038;SDS011;46919;45.816;3.104;2023-05-14T01:39:09;5.30;;;4.80;;
61038;SDS011;46919;45.816;3.104;2023-05-14T01:41:37;9.35;;;4.82;;
61038;SDS011;46919;45.816;3.104;2023-05-14T01:44:04;9.68;;;5.22;;
61038;SDS011;46919;45.816;3.104;2023-05-14T01:46:30;5.68;;;5.15;;
61038;SDS011;46919;45.816;3.104;2023-05-14T01:48:56;5.82;;;5.22;;
61038;SDS011;46919;45.816;3.104;2023-05-14T01:51:22;11.32;;;5.50;;
61038;SDS011;46919;45.816;3.104;2023-05-14T01:53:47;7.43;;;5.60;;
61038;SDS011;46919;45.816;3.104;2023-05-14T01:56:12;6.20;;;5.60;;
61038;SDS011;46919;45.816;3.104;2023-05-14T01:58:38;6.47;;;5.70;;
61038;SDS011;46919;45.816;3.104;2023-05-14T02:01:03;7.80;;;6.43;;
61038;SDS011;46919;45.816;3.104;2023-05-14T02:03:29;6.38;;;5.78;;
61038;SDS011;46919;45.816;3.104;2023-05-14T02:05:55;6.72;;;6.03;;
61038;SDS011;46919;45.816;3.104;2023-05-14T02:08:20;8.35;;;6.40;;
61038;SDS011;46919;45.816;3.104;2023-05-14T02:10:45;7.63;;;6.53;;
61038;SDS011;46919;45.816;3.104;2023-05-14T02:13:11;6.30;;;5.70;;
61038;SDS011;46919;45.816;3.104;2023-05-14T02:15:36;7.07;;;6.38;;
61038;SDS011;46919;45.816;3.104;2023-05-14T02:18:02;6.40;;;5.80;;
61038;SDS011;46919;45.816;3.104;2023-05-14T02:20:27;6.57;;;5.57;;
61038;SDS011;46919;45.816;3.104;2023-05-14T02:22:53;6.63;;;6.00;;
61038;SDS011;46919;45.816;3.104;2023-05-14T02:25:18;5.82;;;5.30;;
61038;SDS011;46919;45.816;3.104;2023-05-14T02:27:44;6.22;;;5.38;;
61038;SDS011;46919;45.816;3.104;2023-05-14T02:30:09;6.28;;;5.65;;
61038;SDS011;46919;45.816;3.104;2023-05-14T02:32:35;7.53;;;5.85;;
61038;SDS011;46919;45.816;3.104;2023-05-14T02:35:00;6.97;;;6.28;;
61038;SDS011;46919;45.816;3.104;2023-05-14T02:37:26;6.93;;;6.22;;
61038;SDS011;46919;45.816;3.104;2023-05-14T02:39:51;7.25;;;6.50;;
61038;SDS011;46919;45.816;3.104;2023-05-14T02:42:17;6.80;;;6.20;;
61038;SDS011;46919;45.816;3.104;2023-05-14T02:44:42;6.20;;;5.60;;
61038;SDS011;46919;45.816;3.104;2023-05-14T02:47:08;6.55;;;5.95;;
61038;SDS011;46919;45.816;3.104;2023-05-14T02:49:33;6.68;;;6.05;;
61038;SDS011;46919;45.816;3.104;2023-05-14T02:51:59;7.47;;;6.78;;
61038;SDS011;46919;45.816;3.104;2023-05-14T02:54:25;7.10;;;6.40;;
61038;SDS011;46919;45.816;3.104;2023-05-14T02:56:50;7.28;;;6.57;;
61038;SDS011;46919;45.816;3.104;2023-05-14T02:59:16;7.68;;;6.75;;
61038;SDS011;46919;45.816;3.104;2023-05-14T03:01:41;9.27;;;7.10;;
61038;SDS011;46919;45.816;3.104;2023-05-14T03:04:07;8.05;;;6.80;;
61038;SDS011;46919;45.816;3.104;2023-05-14T03:06:32;7.07;;;6.38;;
61038;SDS011;46919;45.816;3.104;2023-05-14T03:08:58;6.60;;;6.00;;
61038;SDS011;46919;45.816;3.104;2023-05-14T03:11:23;6.53;;;5.80;;
61038;SDS011;46919;45.816;3.104;2023-05-14T03:13:49;5.90;;;5.35;;
61038;SDS011;46919;45.816;3.104;2023-05-14T03:16:14;7.80;;;6.07;;
61038;SDS011;46919;45.816;3.104;2023-05-14T03:18:40;7.65;;;5.88;;
61038;SDS011;46919;45.816;3.104;2023-05-14T03:21:05;7.63;;;6.80;;
61038;SDS011;46919;45.816;3.104;2023-05-14T03:23:33;7.65;;;6.50;;
61038;SDS011;46919;45.816;3.104;2023-05-14T03:25:59;8.18;;;6.88;;
61038;SDS011;46919;45.816;3.104;2023-05-14T03:28:25;6.55;;;5.95;;
61038;SDS011;46919;45.816;3.104;2023-05-14T03:30:50;7.45;;;6.00;;
61038;SDS011;46919;45.816;3.104;2023-05-14T03:33:16;6.80;;;6.10;;
61038;SDS011;46919;45.816;3.104;2023-05-14T03:35:41;6.47;;;5.80;;
61038;SDS011;46919;45.816;3.104;2023-05-14T03:38:07;6.65;;;5.95;;
61038;SDS011;46919;45.816;3.104;2023-05-14T03:40:32;9.50;;;6.22;;
61038;SDS011;46919;45.816;3.104;2023-05-14T03:42:57;6.93;;;6.25;;
61038;SDS011;46919;45.816;3.104;2023-05-14T03:45:23;7.70;;;6.22;;
61038;SDS011;46919;45.816;3.104;2023-05-14T03:47:48;8.98;;;7.53;;
61038;SDS011;46919;45.816;3.104;2023-05-14T03:50:14;7.53;;;6.35;;
61038;SDS011;46919;45.816;3.104;2023-05-14T03:52:39;10.50;;;7.13;;
61038;SDS011;46919;45.816;3.104;2023-05-14T03:55:05;8.50;;;6.63;;
61038;SDS011;46919;45.816;3.104;2023-05-14T03:57:31;9.05;;;7.10;;
61038;SDS011;46919;45.816;3.104;2023-05-14T03:59:56;8.93;;;7.03;;
61038;SDS011;46919;45.816;3.104;2023-05-14T04:02:22;7.40;;;6.70;;
61038;SDS011;46919;45.816;3.104;2023-05-14T04:04:47;9.13;;;7.35;;
61038;SDS011;46919;45.816;3.104;2023-05-14T04:07:12;10.63;;;7.35;;
61038;SDS011;46919;45.816;3.104;2023-05-14T04:09:38;8.77;;;7.30;;
61038;SDS011;46919;45.816;3.104;2023-05-14T04:12:03;10.77;;;7.63;;
61038;SDS011;46919;45.816;3.104;2023-05-14T04:14:29;10.95;;;7.90;;
61038;SDS011;46919;45.816;3.104;2023-05-14T04:16:54;9.65;;;7.95;;
61038;SDS011;46919;45.816;3.104;2023-05-14T04:19:20;11.73;;;8.82;;
61038;SDS011;46919;45.816;3.104;2023-05-14T04:21:45;14.00;;;8.65;;
61038;SDS011;46919;45.816;3.104;2023-05-14T04:24:10;9.88;;;8.88;;
61038;SDS011;46919;45.816;3.104;2023-05-14T04:26:36;11.85;;;9.50;;
61038;SDS011;46919;45.816;3.104;2023-05-14T04:29:01;12.93;;;11.23;;
61038;SDS011;46919;45.816;3.104;2023-05-14T04:31:28;12.73;;;10.80;;
61038;SDS011;46919;45.816;3.104;2023-05-14T04:33:53;14.23;;;12.80;;
61038;SDS011;46919;45.816;3.104;2023-05-14T04:36:19;18.25;;;15.18;;
61038;SDS011;46919;45.816;3.104;2023-05-14T04:38:44;19.55;;;17.45;;
61038;SDS011;46919;45.816;3.104;2023-05-14T04:41:10;21.77;;;17.10;;
61038;SDS011;46919;45.816;3.104;2023-05-14T04:43:36;18.25;;;16.30;;
61038;SDS011;46919;45.816;3.104;2023-05-14T04:46:01;19.95;;;15.45;;
61038;SDS011;46919;45.816;3.104;2023-05-14T04:48:26;17.48;;;15.65;;
61038;SDS011;46919;45.816;3.104;2023-05-14T04:50:52;19.02;;;16.65;;
61038;SDS011;46919;45.816;3.104;2023-05-14T04:53:17;30.05;;;25.20;;
61038;SDS011;46919;45.816;3.104;2023-05-14T04:55:43;49.50;;;35.63;;
61038;SDS011;46919;45.816;3.104;2023-05-14T04:58:08;17.55;;;14.90;;
61038;SDS011;46919;45.816;3.104;2023-05-14T05:00:34;12.90;;;11.60;;
61038;SDS011;46919;45.816;3.104;2023-05-14T05:02:59;11.93;;;10.70;;
61038;SDS011;46919;45.816;3.104;2023-05-14T05:05:24;12.05;;;10.52;;
61038;SDS011;46919;45.816;3.104;2023-05-14T05:07:50;12.45;;;10.65;;
61038;SDS011;46919;45.816;3.104;2023-05-14T05:10:15;12.27;;;10.95;;
61038;SDS011;46919;45.816;3.104;2023-05-14T05:12:41;11.63;;;10.43;;
61038;SDS011;46919;45.816;3.104;2023-05-14T05:15:06;11.00;;;9.68;;
61038;SDS011;46919;45.816;3.104;2023-05-14T05:17:33;12.50;;;11.00;;
61038;SDS011;46919;45.816;3.104;2023-05-14T05:19:59;15.40;;;13.25;;
61038;SDS011;46919;45.816;3.104;2023-05-14T05:22:24;15.00;;;13.50;;
61038;SDS011;46919;45.816;3.104;2023-05-14T05:24:50;16.20;;;14.50;;
61038;SDS011;46919;45.816;3.104;2023-05-14T05:27:15;16.67;;;14.88;;
61038;SDS011;46919;45.816;3.104;2023-05-14T05:29:42;15.95;;;14.23;;
61038;SDS011;46919;45.816;3.104;2023-05-14T05:32:08;15.20;;;13.60;;
61038;SDS011;46919;45.816;3.104;2023-05-14T05:34:34;17.35;;;14.15;;
61038;SDS011;46919;45.816;3.104;2023-05-14T05:37:00;14.68;;;12.65;;
61038;SDS011;46919;45.816;3.104;2023-05-14T05:39:26;15.77;;;13.38;;
61038;SDS011;46919;45.816;3.104;2023-05-14T05:41:52;14.15;;;12.70;;
61038;SDS011;46919;45.816;3.104;2023-05-14T05:44:18;14.35;;;11.52;;
61038;SDS011;46919;45.816;3.104;2023-05-14T05:46:43;12.80;;;11.48;;
61038;SDS011;46919;45.816;3.104;2023-05-14T05:49:08;11.57;;;10.38;;
61038;SDS011;46919;45.816;3.104;2023-05-14T05:51:34;13.20;;;10.60;;
61038;SDS011;46919;45.816;3.104;2023-05-14T05:53:59;13.15;;;11.60;;
61038;SDS011;46919;45.816;3.104;2023-05-14T05:56:25;10.57;;;9.45;;
61038;SDS011;46919;45.816;3.104;2023-05-14T05:58:50;11.68;;;10.48;;
61038;SDS011;46919;45.816;3.104;2023-05-14T06:01:16;11.75;;;9.43;;
61038;SDS011;46919;45.816;3.104;2023-05-14T06:03:41;11.43;;;9.05;;
61038;SDS011;46919;45.816;3.104;2023-05-14T06:06:06;11.35;;;10.25;;
61038;SDS011;46919;45.816;3.104;2023-05-14T06:08:32;12.32;;;11.13;;
61038;SDS011;46919;45.816;3.104;2023-05-14T06:10:57;12.55;;;11.35;;
61038;SDS011;46919;45.816;3.104;2023-05-14T06:13:23;12.90;;;11.48;;
61038;SDS011;46919;45.816;3.104;2023-05-14T06:15:48;11.98;;;10.75;;
61038;SDS011;46919;45.816;3.104;2023-05-14T06:18:14;11.38;;;10.27;;
61038;SDS011;46919;45.816;3.104;2023-05-14T06:20:39;12.63;;;10.85;;
61038;SDS011;46919;45.816;3.104;2023-05-14T06:23:05;11.27;;;10.15;;
61038;SDS011;46919;45.816;3.104;2023-05-14T06:25:31;12.20;;;11.02;;
61038;SDS011;46919;45.816;3.104;2023-05-14T06:27:57;12.30;;;10.15;;
61038;SDS011;46919;45.816;3.104;2023-05-14T06:30:22;15.10;;;10.80;;
61038;SDS011;46919;45.816;3.104;2023-05-14T06:32:48;11.00;;;9.90;;
61038;SDS011;46919;45.816;3.104;2023-05-14T06:35:13;11.52;;;10.43;;
61038;SDS011;46919;45.816;3.104;2023-05-14T06:37:39;10.90;;;9.80;;
61038;SDS011;46919;45.816;3.104;2023-05-14T06:40:04;10.82;;;9.80;;
61038;SDS011;46919;45.816;3.104;2023-05-14T06:42:30;9.30;;;8.40;;
61038;SDS011;46919;45.816;3.104;2023-05-14T06:44:55;11.57;;;9.93;;
61038;SDS011;46919;45.816;3.104;2023-05-14T06:47:21;10.38;;;9.27;;
61038;SDS011;46919;45.816;3.104;2023-05-14T06:49:46;10.20;;;9.20;;
61038;SDS011;46919;45.816;3.104;2023-05-14T06:52:12;11.15;;;10.05;;
61038;SDS011;46919;45.816;3.104;2023-05-14T06:54:37;11.00;;;9.68;;
61038;SDS011;46919;45.816;3.104;2023-05-14T06:57:03;10.68;;;9.55;;
61038;SDS011;46919;45.816;3.104;2023-05-14T06:59:28;12.60;;;9.20;;
61038;SDS011;46919;45.816;3.104;2023-05-14T07:01:54;10.93;;;9.82;;
61038;SDS011;46919;45.816;3.104;2023-05-14T07:04:19;10.52;;;9.35;;
61038;SDS011;46919;45.816;3.104;2023-05-14T07:06:45;10.75;;;9.70;;
61038;SDS011;46919;45.816;3.104;2023-05-14T07:09:10;10.02;;;9.02;;
61038;SDS011;46919;45.816;3.104;2023-05-14T07:11:36;10.93;;;9.82;;
61038;SDS011;46919;45.816;3.104;2023-05-14T07:14:01;12.70;;;10.88;;
61038;SDS011;46919;45.816;3.104;2023-05-14T07:16:26;12.98;;;9.90;;
61038;SDS011;46919;45.816;3.104;2023-05-14T07:18:52;11.50;;;10.05;;
61038;SDS011;46919;45.816;3.104;2023-05-14T07:21:18;12.05;;;10.57;;
61038;SDS011;46919;45.816;3.104;2023-05-14T07:23:43;11.80;;;10.15;;
61038;SDS011;46919;45.816;3.104;2023-05-14T07:26:08;10.35;;;9.30;;
61038;SDS011;46919;45.816;3.104;2023-05-14T07:28:34;11.43;;;9.88;;
61038;SDS011;46919;45.816;3.104;2023-05-14T07:31:00;10.82;;;9.73;;
61038;SDS011;46919;45.816;3.104;2023-05-14T07:33:25;14.98;;;11.15;;
61038;SDS011;46919;45.816;3.104;2023-05-14T07:35:51;11.20;;;10.10;;
61038;SDS011;46919;45.816;3.104;2023-05-14T07:38:17;10.88;;;9.77;;
61038;SDS011;46919;45.816;3.104;2023-05-14T07:40:43;10.45;;;9.43;;
61038;SDS011;46919;45.816;3.104;2023-05-14T07:43:08;9.98;;;8.95;;
61038;SDS011;46919;45.816;3.104;2023-05-14T07:45:37;11.70;;;9.50;;
61038;SDS011;46919;45.816;3.104;2023-05-14T07:48:03;11.40;;;10.30;;
61038;SDS011;46919;45.816;3.104;2023-05-14T07:50:29;12.10;;;9.85;;
61038;SDS011;46919;45.816;3.104;2023-05-14T07:52:54;11.95;;;9.77;;
61038;SDS011;46919;45.816;3.104;2023-05-14T07:55:20;11.90;;;9.90;;
61038;SDS011;46919;45.816;3.104;2023-05-14T07:57:45;10.48;;;9.48;;
61038;SDS011;46919;45.816;3.104;2023-05-14T08:00:11;10.50;;;9.40;;
61038;SDS011;46919;45.816;3.104;2023-05-14T08:02:37;10.65;;;9.63;;
61038;SDS011;46919;45.816;3.104;2023-05-14T08:05:02;9.98;;;8.98;;
61038;SDS011;46919;45.816;3.104;2023-05-14T08:07:28;8.68;;;7.88;;
61038;SDS011;46919;45.816;3.104;2023-05-14T08:09:54;9.48;;;8.55;;
61038;SDS011;46919;45.816;3.104;2023-05-14T08:12:19;10.70;;;8.25;;
61038;SDS011;46919;45.816;3.104;2023-05-14T08:14:45;9.32;;;7.95;;
61038;SDS011;46919;45.816;3.104;2023-05-14T08:17:10;10.27;;;9.00;;
61038;SDS011;46919;45.816;3.104;2023-05-14T08:19:36;10.75;;;8.68;;
61038;SDS011;46919;45.816;3.104;2023-05-14T08:22:01;9.43;;;8.43;;
61038;SDS011;46919;45.816;3.104;2023-05-14T08:24:27;11.13;;;8.77;;
61038;SDS011;46919;45.816;3.104;2023-05-14T08:26:53;8.00;;;7.20;;
61038;SDS011;46919;45.816;3.104;2023-05-14T08:29:19;8.05;;;7.22;;
61038;SDS011;46919;45.816;3.104;2023-05-14T08:31:44;7.72;;;6.32;;
61038;SDS011;46919;45.816;3.104;2023-05-14T08:34:10;6.85;;;6.13;;
61038;SDS011;46919;45.816;3.104;2023-05-14T08:36:35;8.18;;;6.70;;
61038;SDS011;46919;45.816;3.104;2023-05-14T08:39:00;7.65;;;6.90;;
61038;SDS011;46919;45.816;3.104;2023-05-14T08:41:26;8.23;;;6.65;;
61038;SDS011;46919;45.816;3.104;2023-05-14T08:46:42;8.73;;;7.55;;
61038;SDS011;46919;45.816;3.104;2023-05-14T08:49:16;10.27;;;7.22;;
61038;SDS011;46919;45.816;3.104;2023-05-14T08:51:47;10.85;;;7.75;;
61038;SDS011;46919;45.816;3.104;2023-05-14T08:54:14;8.15;;;7.35;;
61038;SDS011;46919;45.816;3.104;2023-05-14T08:56:42;7.95;;;7.15;;
61038;SDS011;46919;45.816;3.104;2023-05-14T08:59:09;6.57;;;5.95;;
61038;SDS011;46919;45.816;3.104;2023-05-14T09:01:36;7.00;;;6.30;;
61038;SDS011;46919;45.816;3.104;2023-05-14T09:04:03;7.78;;;6.32;;
61038;SDS011;46919;45.816;3.104;2023-05-14T09:06:32;6.43;;;5.75;;
61038;SDS011;46919;45.816;3.104;2023-05-14T09:09:00;6.85;;;5.75;;
61038;SDS011;46919;45.816;3.104;2023-05-14T09:11:26;5.78;;;5.18;;
61038;SDS011;46919;45.816;3.104;2023-05-14T09:13:51;8.60;;;6.00;;
61038;SDS011;46919;45.816;3.104;2023-05-14T09:16:17;6.05;;;5.43;;
61038;SDS011;46919;45.816;3.104;2023-05-14T09:18:44;4.75;;;4.35;;
61038;SDS011;46919;45.816;3.104;2023-05-14T09:21:11;5.47;;;4.97;;
61038;SDS011;46919;45.816;3.104;2023-05-14T09:23:40;6.18;;;5.30;;
61038;SDS011;46919;45.816;3.104;2023-05-14T09:26:08;6.13;;;5.10;;
61038;SDS011;46919;45.816;3.104;2023-05-14T09:28:34;5.85;;;5.30;;
61038;SDS011;46919;45.816;3.104;2023-05-14T09:30:59;8.15;;;5.60;;
61038;SDS011;46919;45.816;3.104;2023-05-14T09:33:26;5.55;;;5.05;;
61038;SDS011;46919;45.816;3.104;2023-05-14T09:35:59;6.30;;;5.70;;
61038;SDS011;46919;45.816;3.104;2023-05-14T09:38:31;6.22;;;5.22;;
61038;SDS011;46919;45.816;3.104;2023-05-14T09:40:57;7.38;;;5.55;;
61038;SDS011;46919;45.816;3.104;2023-05-14T09:43:24;7.72;;;5.13;;
61038;SDS011;46919;45.816;3.104;2023-05-14T09:45:50;5.15;;;4.70;;
61038;SDS011;46919;45.816;3.104;2023-05-14T09:48:16;5.30;;;4.43;;
61038;SDS011;46919;45.816;3.104;2023-05-14T09:50:42;4.38;;;4.05;;
61038;SDS011;46919;45.816;3.104;2023-05-14T09:53:08;6.32;;;4.80;;
61038;SDS011;46919;45.816;3.104;2023-05-14T09:55:35;5.68;;;4.47;;
61038;SDS011;46919;45.816;3.104;2023-05-14T09:58:01;6.60;;;4.30;;
61038;SDS011;46919;45.816;3.104;2023-05-14T10:00:26;4.97;;;4.18;;
61038;SDS011;46919;45.816;3.104;2023-05-14T10:02:53;4.43;;;4.03;;
61038;SDS011;46919;45.816;3.104;2023-05-14T10:05:21;4.57;;;4.18;;
61038;SDS011;46919;45.816;3.104;2023-05-14T10:07:48;5.03;;;4.50;;
61038;SDS011;46919;45.816;3.104;2023-05-14T10:10:18;4.20;;;3.80;;
61038;SDS011;46919;45.816;3.104;2023-05-14T10:12:47;4.05;;;3.75;;
61038;SDS011;46919;45.816;3.104;2023-05-14T10:15:22;3.83;;;3.45;;
61038;SDS011;46919;45.816;3.104;2023-05-14T10:17:55;5.47;;;3.40;;
61038;SDS011;46919;45.816;3.104;2023-05-14T10:20:22;3.60;;;3.25;;
61038;SDS011;46919;45.816;3.104;2023-05-14T10:22:51;3.40;;;3.10;;
61038;SDS011;46919;45.816;3.104;2023-05-14T10:25:16;3.83;;;3.53;;
61038;SDS011;46919;45.816;3.104;2023-05-14T10:27:42;5.45;;;3.78;;
61038;SDS011;46919;45.816;3.104;2023-05-14T10:30:11;4.32;;;3.58;;
61038;SDS011;46919;45.816;3.104;2023-05-14T10:32:37;3.75;;;3.40;;
61038;SDS011;46919;45.816;3.104;2023-05-14T10:35:14;3.53;;;3.05;;
61038;SDS011;46919;45.816;3.104;2023-05-14T10:37:40;3.50;;;3.10;;
61038;SDS011;46919;45.816;3.104;2023-05-14T10:40:07;3.30;;;3.05;;
61038;SDS011;46919;45.816;3.104;2023-05-14T10:42:34;3.70;;;3.40;;
61038;SDS011;46919;45.816;3.104;2023-05-14T10:45:07;4.10;;;3.25;;
61038;SDS011;46919;45.816;3.104;2023-05-14T10:47:34;3.85;;;3.20;;
61038;SDS011;46919;45.816;3.104;2023-05-14T10:50:02;3.80;;;3.38;;
61038;SDS011;46919;45.816;3.104;2023-05-14T10:52:29;3.30;;;3.05;;
61038;SDS011;46919;45.816;3.104;2023-05-14T10:54:56;3.88;;;3.25;;
61038;SDS011;46919;45.816;3.104;2023-05-14T10:57:23;3.95;;;3.40;;
61038;SDS011;46919;45.816;3.104;2023-05-14T10:59:51;5.28;;;3.30;;
61038;SDS011;46919;45.816;3.104;2023-05-14T11:02:19;4.82;;;3.40;;
61038;SDS011;46919;45.816;3.104;2023-05-14T11:04:56;5.57;;;3.25;;
61038;SDS011;46919;45.816;3.104;2023-05-14T11:07:30;4.20;;;3.30;;
61038;SDS011;46919;45.816;3.104;2023-05-14T11:09:59;3.92;;;3.53;;
61038;SDS011;46919;45.816;3.104;2023-05-14T11:12:36;4.78;;;3.38;;
61038;SDS011;46919;45.816;3.104;2023-05-14T11:15:13;3.55;;;3.25;;
61038;SDS011;46919;45.816;3.104;2023-05-14T11:17:40;3.55;;;3.22;;
61038;SDS011;46919;45.816;3.104;2023-05-14T11:20:07;4.07;;;3.50;;
61038;SDS011;46919;45.816;3.104;2023-05-14T11:22:33;4.32;;;3.75;;
61038;SDS011;46919;45.816;3.104;2023-05-14T11:24:59;3.95;;;3.58;;
61038;SDS011;46919;45.816;3.104;2023-05-14T11:27:25;4.75;;;3.30;;
61038;SDS011;46919;45.816;3.104;2023-05-14T11:29:51;4.13;;;3.72;;
61038;SDS011;46919;45.816;3.104;2023-05-14T11:32:16;3.88;;;3.58;;
61038;SDS011;46919;45.816;3.104;2023-05-14T11:34:42;3.50;;;3.20;;
61038;SDS011;46919;45.816;3.104;2023-05-14T11:37:09;5.50;;;3.28;;
61038;SDS011;46919;45.816;3.104;2023-05-14T11:39:36;3.90;;;3.17;;
61038;SDS011;46919;45.816;3.104;2023-05-14T11:42:09;3.30;;;3.00;;
61038;SDS011;46919;45.816;3.104;2023-05-14T11:44:39;3.67;;;3.38;;
61038;SDS011;46919;45.816;3.104;2023-05-14T11:47:08;4.10;;;3.70;;
61038;SDS011;46919;45.816;3.104;2023-05-14T11:49:34;4.13;;;3.67;;
61038;SDS011;46919;45.816;3.104;2023-05-14T11:52:05;4.22;;;3.45;;
61038;SDS011;46919;45.816;3.104;2023-05-14T11:54:34;4.20;;;3.80;;
61038;SDS011;46919;45.816;3.104;2023-05-14T11:57:01;4.43;;;3.47;;
61038;SDS011;46919;45.816;3.104;2023-05-14T11:59:31;3.58;;;3.28;;
61038;SDS011;46919;45.816;3.104;2023-05-14T12:01:57;3.80;;;3.50;;
61038;SDS011;46919;45.816;3.104;2023-05-14T12:04:23;3.67;;;3.38;;
61038;SDS011;46919;45.816;3.104;2023-05-14T12:06:49;4.47;;;3.45;;
61038;SDS011;46919;45.816;3.104;2023-05-14T12:09:17;3.75;;;3.40;;
61038;SDS011;46919;45.816;3.104;2023-05-14T12:11:43;4.50;;;4.10;;
61038;SDS011;46919;45.816;3.104;2023-05-14T12:14:14;4.30;;;3.88;;
61038;SDS011;46919;45.816;3.104;2023-05-14T12:16:42;4.97;;;4.30;;
61038;SDS011;46919;45.816;3.104;2023-05-14T12:19:09;5.10;;;4.60;;
61038;SDS011;46919;45.816;3.104;2023-05-14T12:21:37;5.25;;;4.75;;
61038;SDS011;46919;45.816;3.104;2023-05-14T12:24:03;4.60;;;4.20;;
61038;SDS011;46919;45.816;3.104;2023-05-14T12:26:32;4.88;;;3.95;;
61038;SDS011;46919;45.816;3.104;2023-05-14T12:28:58;5.32;;;4.00;;
61038;SDS011;46919;45.816;3.104;2023-05-14T12:31:28;4.32;;;3.70;;
61038;SDS011;46919;45.816;3.104;2023-05-14T12:33:55;4.57;;;4.07;;
61038;SDS011;46919;45.816;3.104;2023-05-14T12:36:21;5.00;;;4.40;;
61038;SDS011;46919;45.816;3.104;2023-05-14T12:38:46;6.30;;;4.07;;
61038;SDS011;46919;45.816;3.104;2023-05-14T12:41:12;5.35;;;4.38;;
61038;SDS011;46919;45.816;3.104;2023-05-14T12:43:39;4.72;;;4.22;;
61038;SDS011;46919;45.816;3.104;2023-05-14T12:46:07;4.80;;;4.40;;
61038;SDS011;46919;45.816;3.104;2023-05-14T12:48:32;4.78;;;4.30;;
61038;SDS011;46919;45.816;3.104;2023-05-14T12:50:57;5.38;;;4.85;;
61038;SDS011;46919;45.816;3.104;2023-05-14T12:53:23;5.05;;;4.32;;
61038;SDS011;46919;45.816;3.104;2023-05-14T12:55:48;6.50;;;4.50;;
61038;SDS011;46919;45.816;3.104;2023-05-14T12:58:14;5.35;;;4.85;;
61038;SDS011;46919;45.816;3.104;2023-05-14T13:00:40;5.18;;;4.68;;
61038;SDS011;46919;45.816;3.104;2023-05-14T13:03:05;4.85;;;4.13;;
61038;SDS011;46919;45.816;3.104;2023-05-14T13:05:31;5.57;;;4.18;;
61038;SDS011;46919;45.816;3.104;2023-05-14T13:07:57;6.38;;;3.97;;
61038;SDS011;46919;45.816;3.104;2023-05-14T13:10:24;5.00;;;4.50;;
61038;SDS011;46919;45.816;3.104;2023-05-14T13:12:49;4.30;;;3.90;;
61038;SDS011;46919;45.816;3.104;2023-05-14T13:15:16;4.20;;;3.80;;
61038;SDS011;46919;45.816;3.104;2023-05-14T13:17:42;5.25;;;3.95;;
61038;SDS011;46919;45.816;3.104;2023-05-14T13:20:08;3.70;;;3.40;;
61038;SDS011;46919;45.816;3.104;2023-05-14T13:22:33;4.13;;;3.38;;
61038;SDS011;46919;45.816;3.104;2023-05-14T13:24:59;3.60;;;3.30;;
61038;SDS011;46919;45.816;3.104;2023-05-14T13:27:24;4.07;;;3.28;;
61038;SDS011;46919;45.816;3.104;2023-05-14T13:29:50;4.45;;;3.28;;
61038;SDS011;46919;45.816;3.104;2023-05-14T13:32:15;5.40;;;3.42;;
61038;SDS011;46919;45.816;3.104;2023-05-14T13:34:41;4.05;;;3.17;;
61038;SDS011;46919;45.816;3.104;2023-05-14T13:37:08;3.13;;;2.83;;
61038;SDS011;46919;45.816;3.104;2023-05-14T13:39:33;3.50;;;3.20;;
61038;SDS011;46919;45.816;3.104;2023-05-14T13:41:59;3.47;;;3.08;;
61038;SDS011;46919;45.816;3.104;2023-05-14T13:44:25;4.53;;;3.30;;
61038;SDS011;46919;45.816;3.104;2023-05-14T13:46:51;4.32;;;2.80;;
61038;SDS011;46919;45.816;3.104;2023-05-14T13:49:17;4.32;;;3.17;;
61038;SDS011;46919;45.816;3.104;2023-05-14T13:51:42;3.47;;;3.17;;
61038;SDS011;46919;45.816;3.104;2023-05-14T13:54:08;5.13;;;3.13;;
61038;SDS011;46919;45.816;3.104;2023-05-14T13:56:33;3.65;;;3.05;;
61038;SDS011;46919;45.816;3.104;2023-05-14T13:58:59;3.47;;;3.17;;
61038;SDS011;46919;45.816;3.104;2023-05-14T14:01:24;3.60;;;3.30;;
61038;SDS011;46919;45.816;3.104;2023-05-14T14:03:50;4.13;;;3.25;;
61038;SDS011;46919;45.816;3.104;2023-05-14T14:06:15;3.90;;;3.50;;
61038;SDS011;46919;45.816;3.104;2023-05-14T14:08:40;3.58;;;3.22;;
61038;SDS011;46919;45.816;3.104;2023-05-14T14:11:06;5.00;;;3.17;;
61038;SDS011;46919;45.816;3.104;2023-05-14T14:13:31;3.70;;;3.22;;
61038;SDS011;46919;45.816;3.104;2023-05-14T14:15:57;7.53;;;3.50;;
61038;SDS011;46919;45.816;3.104;2023-05-14T14:18:22;5.88;;;3.20;;
61038;SDS011;46919;45.816;3.104;2023-05-14T14:20:48;4.30;;;3.53;;
61038;SDS011;46919;45.816;3.104;2023-05-14T14:23:13;3.95;;;3.47;;
61038;SDS011;46919;45.816;3.104;2023-05-14T14:25:38;3.53;;;2.97;;
61038;SDS011;46919;45.816;3.104;2023-05-14T14:28:04;3.92;;;3.28;;
61038;SDS011;46919;45.816;3.104;2023-05-14T14:30:29;4.10;;;3.20;;
61038;SDS011;46919;45.816;3.104;2023-05-14T14:32:56;6.40;;;3.60;;
61038;SDS011;46919;45.816;3.104;2023-05-14T14:35:21;4.53;;;2.90;;
61038;SDS011;46919;45.816;3.104;2023-05-14T14:37:47;8.23;;;4.75;;
61038;SDS011;46919;45.816;3.104;2023-05-14T14:40:14;7.07;;;4.10;;
61038;SDS011;46919;45.816;3.104;2023-05-14T14:42:41;3.60;;;3.30;;